Time;durP1;ratioP1;P1;durP2;ratioP2;P2;SDS_P1;SDS_P2;PMS_P1;PMS_P2;Temp;Humidity;BMP_temperature;BMP_pressure;BME280_temperature;BME280_humidity;BME280_pressure;Samples;Min_cycle;Max_cycle;Signal;HPM_P1;HPM_P2
2023/10/19 00:00:56;;;;;;;0.40;0.30;;;;;;;13.04;100.00;95535.94;5135813;27;20447;-57
2023/10/19 00:03:26;;;;;;;0.40;0.20;;;;;;;13.35;100.00;95542.63;5135958;27;20487;-57
2023/10/19 00:05:56;;;;;;;0.40;0.30;;;;;;;13.25;100.00;95545.38;5122520;27;20422;-57
2023/10/19 00:08:36;;;;;;;0.40;0.30;;;;;;;12.77;100.00;95468.03;5136232;27;20520;-57
2023/10/19 00:11:07;;;;;;;0.40;0.20;;;;;;;13.25;100.00;95532.06;5135712;27;20470;-57
2023/10/19 00:13:37;;;;;;;0.40;0.20;;;;;;;13.30;100.00;95535.47;5135671;27;20426;-56
2023/10/19 00:16:11;;;;;;;0.40;0.27;;;;;;;13.29;100.00;95535.75;5135191;27;20442;-57
2023/10/19 00:18:42;;;;;;;0.40;0.30;;;;;;;12.97;100.00;95530.13;5121771;27;20470;-57
2023/10/19 00:21:19;;;;;;;0.40;0.30;;;;;;;12.43;100.00;95535.56;5135480;27;20434;-57
2023/10/19 00:23:51;;;;;;;0.40;0.30;;;;;;;11.94;100.00;95527.59;5135311;27;20432;-57
2023/10/19 00:26:19;;;;;;;0.73;0.70;;;;;;;12.30;100.00;95536.16;5135609;27;20493;-57
2023/10/19 00:28:52;;;;;;;1.00;1.00;;;;;;;11.95;100.00;95537.13;5134639;27;20932;-56
2023/10/19 00:31:21;;;;;;;2.63;0.40;;;;;;;11.93;100.00;95533.97;5135537;27;20454;-57
2023/10/19 00:33:51;;;;;;;0.40;0.20;;;;;;;11.93;100.00;95531.31;5135268;27;20488;-57
2023/10/19 00:36:21;;;;;;;0.50;0.30;;;;;;;11.74;100.00;95531.09;5135755;27;20824;-57
2023/10/19 00:38:53;;;;;;;0.40;0.30;;;;;;;11.77;100.00;95517.28;5134712;27;20530;-57
2023/10/19 00:41:28;;;;;;;0.40;0.30;;;;;;;11.79;100.00;95522.34;5135100;27;20430;-57
2023/10/19 00:44:02;;;;;;;0.40;0.30;;;;;;;12.21;100.00;95522.69;5135076;27;20437;-57
2023/10/19 00:46:37;;;;;;;0.40;0.30;;;;;;;12.45;100.00;95515.63;5134612;27;20904;-56
2023/10/19 00:49:07;;;;;;;0.40;0.30;;;;;;;12.54;100.00;95513.97;5134955;27;20931;-57
2023/10/19 00:51:50;;;;;;;0.40;0.20;;;;;;;12.50;100.00;95494.31;5135073;27;20483;-57
2023/10/19 00:54:31;;;;;;;0.70;0.40;;;;;;;12.36;100.00;95484.59;5134763;27;20876;-57
2023/10/19 00:57:05;;;;;;;0.40;0.20;;;;;;;12.41;100.00;95495.97;5135012;27;20862;-57
2023/10/19 00:59:38;;;;;;;0.60;0.30;;;;;;;12.54;100.00;95505.19;5134845;27;20517;-57
2023/10/19 01:02:28;;;;;;;0.50;0.30;;;;;;;12.44;100.00;95503.41;5134810;27;20435;-57
2023/10/19 01:05:00;;;;;;;0.40;0.30;;;;;;;12.53;100.00;95498.28;5134770;27;20466;-58
2023/10/19 01:07:29;;;;;;;0.50;0.30;;;;;;;12.47;100.00;95486.13;5134596;27;20483;-58
2023/10/19 01:10:03;;;;;;;0.40;0.20;;;;;;;12.41;100.00;95498.63;5134699;27;20434;-58
2023/10/19 01:12:38;;;;;;;0.60;0.43;;;;;;;12.25;100.00;95489.16;5134268;27;20434;-58
2023/10/19 01:15:16;;;;;;;0.40;0.30;;;;;;;12.09;100.00;95472.50;5134177;27;21053;-57
2023/10/19 01:17:46;;;;;;;0.40;0.37;;;;;;;12.08;100.00;95497.50;5134430;27;20477;-57
2023/10/19 01:20:20;;;;;;;0.40;0.40;;;;;;;12.22;100.00;95494.25;5134263;27;20473;-57
2023/10/19 01:23:20;;;;;;;0.40;0.30;;;;;;;11.82;100.00;95404.94;5134364;27;20423;-57
2023/10/19 01:25:59;;;;;;;0.50;0.37;;;;;;;12.34;100.00;95487.53;5134334;27;20823;-57
2023/10/19 01:28:42;;;;;;;0.40;0.30;;;;;;;12.52;100.00;95499.38;5134200;27;20434;-57
2023/10/19 01:31:16;;;;;;;0.50;0.40;;;;;;;12.66;100.00;95495.81;5134326;27;20443;-58
2023/10/19 01:33:45;;;;;;;0.40;0.30;;;;;;;12.00;100.00;95415.72;5120326;27;20438;-57
2023/10/19 01:36:24;;;;;;;0.40;0.30;;;;;;;12.55;100.00;95494.28;5133671;27;20487;-57
2023/10/19 01:38:54;;;;;;;0.40;0.30;;;;;;;12.60;100.00;95496.09;5133845;27;20975;-57
2023/10/19 01:41:26;;;;;;;0.40;0.30;;;;;;;12.65;100.00;95499.50;5133545;27;20518;-57
2023/10/19 01:43:54;;;;;;;0.40;0.20;;;;;;;12.53;100.00;95490.31;5133729;27;20445;-57
2023/10/19 01:46:25;;;;;;;0.40;0.30;;;;;;;12.22;100.00;95484.38;5133298;27;20430;-57
2023/10/19 01:48:55;;;;;;;0.53;0.40;;;;;;;12.42;100.00;95489.56;5133836;27;20517;-57
2023/10/19 01:51:26;;;;;;;0.40;0.20;;;;;;;12.51;100.00;95489.78;5132809;27;20427;-57
2023/10/19 01:53:56;;;;;;;0.40;0.20;;;;;;;12.56;100.00;95497.72;5133982;27;20445;-57
2023/10/19 01:56:25;;;;;;;0.47;0.30;;;;;;;12.67;100.00;95492.06;5133469;27;20818;-57
2023/10/19 01:58:54;;;;;;;0.50;0.30;;;;;;;11.93;100.00;95369.28;5133095;27;20474;-57
2023/10/19 02:01:28;;;;;;;0.40;0.40;;;;;;;12.42;100.00;95494.88;5133858;27;20791;-57
2023/10/19 02:04:00;;;;;;;0.93;0.40;;;;;;;12.53;100.00;95498.28;5133093;27;20442;-56
2023/10/19 02:06:36;;;;;;;0.50;0.50;;;;;;;12.66;100.00;95490.47;5133830;27;20435;-57
2023/10/19 02:09:15;;;;;;;0.43;0.43;;;;;;;12.22;100.00;95492.34;5133486;27;21008;-57
2023/10/19 02:11:46;;;;;;;0.40;0.33;;;;;;;12.03;100.00;95494.06;5133554;27;20438;-57
2023/10/19 02:14:14;;;;;;;0.43;0.37;;;;;;;11.85;100.00;95495.47;5133138;27;20435;-57
2023/10/19 02:16:43;;;;;;;0.40;0.30;;;;;;;12.01;100.00;95496.22;5133072;27;20516;-57
2023/10/19 02:19:11;;;;;;;0.40;0.30;;;;;;;11.72;100.00;95500.56;5133364;27;20474;-57
2023/10/19 02:21:40;;;;;;;0.50;0.50;;;;;;;11.68;100.00;95499.50;5133680;27;20479;-57
2023/10/19 02:24:14;;;;;;;0.83;0.30;;;;;;;11.47;100.00;95498.78;5106701;27;20435;-57
2023/10/19 02:26:43;;;;;;;0.50;0.50;;;;;;;10.99;100.00;95431.22;5132890;27;20527;-57
2023/10/19 02:29:12;;;;;;;1.43;1.43;;;;;;;11.77;100.00;95516.47;5133274;27;20447;-57
2023/10/19 02:31:42;;;;;;;0.40;0.20;;;;;;;12.09;100.00;95504.38;5132308;27;20453;-57
2023/10/19 02:34:11;;;;;;;3.17;0.57;;;;;;;12.13;100.00;95507.31;5133027;27;20434;-56
2023/10/19 02:36:40;;;;;;;0.40;0.20;;;;;;;12.31;100.00;95503.22;5132780;27;21104;-56
2023/10/19 02:39:10;;;;;;;0.40;0.30;;;;;;;12.27;100.00;95505.63;5133266;27;20502;-56
2023/10/19 02:41:40;;;;;;;0.77;0.50;;;;;;;12.44;100.00;95511.38;5132689;27;20514;-56
2023/10/19 02:44:09;;;;;;;0.40;0.30;;;;;;;12.32;100.00;95502.16;5133183;27;20442;-56
2023/10/19 02:46:41;;;;;;;0.40;0.30;;;;;;;11.90;100.00;95498.13;5132563;27;20427;-56
2023/10/19 02:49:11;;;;;;;0.40;0.20;;;;;;;12.04;100.00;95507.06;5133221;27;20435;-56
2023/10/19 02:51:44;;;;;;;0.40;0.30;;;;;;;12.26;100.00;95493.41;5106663;27;20491;-56
2023/10/19 02:54:18;;;;;;;0.50;0.30;;;;;;;12.29;100.00;95498.19;5132593;27;20438;-56
2023/10/19 02:56:49;;;;;;;0.40;0.20;;;;;;;12.54;100.00;95500.69;5132693;27;20453;-56
2023/10/19 02:59:21;;;;;;;0.50;0.30;;;;;;;12.52;100.00;95502.03;5132441;27;20549;-56
2023/10/19 03:01:51;;;;;;;0.40;0.30;;;;;;;12.37;100.00;95507.44;5132630;27;20434;-56
2023/10/19 03:04:19;;;;;;;0.60;0.40;;;;;;;12.60;100.00;95509.38;5132216;27;20961;-56
2023/10/19 03:06:49;;;;;;;0.90;0.40;;;;;;;12.68;100.00;95469.72;5132500;27;20439;-56
2023/10/19 03:09:22;;;;;;;0.33;0.20;;;;;;;12.92;100.00;95500.91;5132565;27;20442;-56
2023/10/19 03:11:52;;;;;;;0.47;0.30;;;;;;;12.68;100.00;95501.63;5132535;27;20454;-56
2023/10/19 03:14:20;;;;;;;2.60;0.60;;;;;;;12.82;100.00;95495.69;5132605;27;20491;-56
2023/10/19 03:16:49;;;;;;;0.40;0.30;;;;;;;12.59;100.00;95490.00;5132636;28;20492;-57
2023/10/19 03:19:17;;;;;;;1.47;1.47;;;;;;;12.61;100.00;95490.53;5132129;28;20557;-57
2023/10/19 03:21:48;;;;;;;0.40;0.30;;;;;;;12.93;100.00;95492.66;5131678;28;20887;-56
2023/10/19 03:24:23;;;;;;;0.33;0.20;;;;;;;12.71;100.00;95441.78;5132238;28;20442;-56
2023/10/19 03:26:59;;;;;;;0.40;0.30;;;;;;;12.81;100.00;95491.41;5131316;28;20472;-57
2023/10/19 03:29:31;;;;;;;0.50;0.50;;;;;;;12.64;100.00;95495.28;5132477;28;20438;-57
2023/10/19 03:32:00;;;;;;;0.40;0.20;;;;;;;12.91;100.00;95499.31;5131838;28;20848;-57
2023/10/19 03:34:32;;;;;;;0.40;0.20;;;;;;;12.93;100.00;95503.28;5132120;28;20430;-57
2023/10/19 03:37:07;;;;;;;0.40;0.30;;;;;;;12.93;100.00;95494.53;5132440;28;20538;-57
2023/10/19 03:39:37;;;;;;;0.30;0.20;;;;;;;12.97;100.00;95492.91;5131797;28;20499;-56
2023/10/19 03:42:06;;;;;;;0.80;0.80;;;;;;;13.06;100.00;95501.84;5131694;28;20998;-55
2023/10/19 03:44:44;;;;;;;0.70;0.70;;;;;;;13.01;100.00;95483.28;5131812;28;20441;-58
2023/10/19 03:47:14;;;;;;;0.50;0.30;;;;;;;12.96;100.00;95489.44;5132224;28;20426;-56
2023/10/19 03:49:46;;;;;;;0.57;0.57;;;;;;;12.81;100.00;95486.09;5131033;28;20445;-56
2023/10/19 03:52:22;;;;;;;0.40;0.30;;;;;;;12.82;100.00;95479.72;5132281;28;20869;-57
2023/10/19 03:54:52;;;;;;;0.50;0.50;;;;;;;12.85;100.00;95485.25;5131692;28;20525;-56
2023/10/19 03:57:22;;;;;;;0.77;0.57;;;;;;;12.87;100.00;95483.13;5131618;28;20438;-56
2023/10/19 03:59:56;;;;;;;0.43;0.43;;;;;;;12.97;100.00;95484.91;5131894;28;20466;-56
2023/10/19 04:02:26;;;;;;;0.90;0.90;;;;;;;12.86;100.00;95481.53;5130924;28;20927;-56
2023/10/19 04:04:57;;;;;;;0.83;0.83;;;;;;;12.85;100.00;95485.25;5131907;28;20499;-57
2023/10/19 04:07:27;;;;;;;0.60;0.40;;;;;;;12.67;100.00;95475.31;5131061;28;20454;-57
2023/10/19 04:10:09;;;;;;;0.40;0.30;;;;;;;12.30;100.00;95420.03;5131336;28;20453;-56
2023/10/19 04:12:42;;;;;;;0.40;0.30;;;;;;;12.62;100.00;95489.44;5131075;28;20462;-56
2023/10/19 04:15:15;;;;;;;0.40;0.30;;;;;;;12.56;100.00;95479.91;5133763;27;20434;-56
2023/10/19 04:17:44;;;;;;;0.50;0.40;;;;;;;12.35;100.00;95470.50;5110737;27;20427;-57
2023/10/19 04:20:29;;;;;;;0.60;0.33;;;;;;;12.38;100.00;95485.88;5135312;27;20905;-56
2023/10/19 04:23:06;;;;;;;3.40;3.10;;;;;;;12.09;100.00;95487.66;5135580;27;20477;-57
2023/10/19 04:25:36;;;;;;;6.53;3.57;;;;;;;12.23;100.00;95486.00;5134367;27;20521;-57
2023/10/19 04:28:05;;;;;;;4.47;4.17;;;;;;;12.07;100.00;95489.78;5135067;27;20434;-57
2023/10/19 04:30:36;;;;;;;2.90;2.80;;;;;;;11.85;100.00;95489.38;5134906;27;20511;-58
2023/10/19 04:33:09;;;;;;;3.27;3.17;;;;;;;11.73;100.00;95488.91;5135433;27;20445;-57
2023/10/19 04:35:41;;;;;;;2.30;2.20;;;;;;;11.48;100.00;95490.53;5134948;27;20430;-57
2023/10/19 04:38:10;;;;;;;0.70;0.70;;;;;;;11.51;100.00;95491.06;5134169;27;20441;-57
2023/10/19 04:40:40;;;;;;;0.70;0.70;;;;;;;11.51;100.00;95501.69;5135304;27;20867;-58
2023/10/19 04:43:08;;;;;;;0.50;0.50;;;;;;;11.92;100.00;95492.53;5135187;27;20427;-58
2023/10/19 04:45:40;;;;;;;0.50;0.50;;;;;;;12.21;100.00;95496.09;5134820;27;20430;-58
2023/10/19 04:48:09;;;;;;;0.47;0.37;;;;;;;12.45;100.00;95494.34;5134833;27;20431;-58
2023/10/19 04:50:39;;;;;;;0.57;0.30;;;;;;;12.25;100.00;95494.47;5133219;27;20464;-58
2023/10/19 04:53:08;;;;;;;0.40;0.20;;;;;;;12.52;100.00;95494.06;5131776;27;21144;-57
2023/10/19 04:55:36;;;;;;;0.80;0.80;;;;;;;12.78;100.00;95492.78;5132922;27;20438;-57
2023/10/19 04:58:07;;;;;;;0.40;0.27;;;;;;;12.72;100.00;95497.34;5133566;27;20883;-56
2023/10/19 05:00:36;;;;;;;0.40;0.30;;;;;;;12.71;100.00;95498.41;5132973;27;21013;-57
2023/10/19 05:03:06;;;;;;;0.40;0.30;;;;;;;12.58;100.00;95493.72;5133974;27;20450;-57
2023/10/19 05:05:35;;;;;;;0.40;0.30;;;;;;;12.57;100.00;95494.78;5134366;27;20881;-57
2023/10/19 05:08:05;;;;;;;0.50;0.50;;;;;;;12.44;100.00;95500.75;5134593;27;20438;-58
2023/10/19 05:10:33;;;;;;;0.40;0.30;;;;;;;12.35;100.00;95506.91;5134190;27;20877;-57
2023/10/19 05:13:01;;;;;;;0.40;0.30;;;;;;;12.72;100.00;95502.66;5134433;27;20466;-58
2023/10/19 05:15:33;;;;;;;0.40;0.20;;;;;;;12.88;100.00;95513.16;5134537;27;20442;-57
2023/10/19 05:18:04;;;;;;;0.90;0.40;;;;;;;12.83;100.00;95497.25;5134267;27;20457;-57
2023/10/19 05:20:33;;;;;;;0.60;0.30;;;;;;;13.11;100.00;95501.84;5133910;27;20470;-57
2023/10/19 05:23:01;;;;;;;1.40;0.30;;;;;;;12.62;100.00;95508.03;5134472;27;20438;-57
2023/10/19 05:25:30;;;;;;;0.73;0.53;;;;;;;12.64;100.00;95505.94;5133598;27;21006;-57
2023/10/19 05:28:00;;;;;;;0.40;0.30;;;;;;;12.82;100.00;95515.09;5133893;27;20449;-57
2023/10/19 05:30:29;;;;;;;0.40;0.40;;;;;;;12.96;100.00;95507.25;5133894;27;20822;-57
2023/10/19 05:33:01;;;;;;;0.40;0.40;;;;;;;12.74;100.00;95513.81;5134073;27;20441;-57
2023/10/19 05:35:30;;;;;;;2.57;1.17;;;;;;;12.23;100.00;95514.41;5131723;27;20434;-58
2023/10/19 05:37:58;;;;;;;1.40;0.53;;;;;;;12.39;100.00;95514.06;5127513;27;20495;-57
2023/10/19 05:40:29;;;;;;;0.50;0.50;;;;;;;12.72;100.00;95528.47;5133833;27;20546;-58
2023/10/19 05:43:00;;;;;;;0.40;0.30;;;;;;;12.83;100.00;95515.88;5133721;27;20445;-57
2023/10/19 05:45:29;;;;;;;0.50;0.40;;;;;;;12.71;100.00;95524.22;5134243;27;20461;-58
2023/10/19 05:48:00;;;;;;;0.50;0.30;;;;;;;12.77;100.00;95514.34;5132971;27;20521;-58
2023/10/19 05:50:29;;;;;;;0.30;0.30;;;;;;;12.54;100.00;95521.94;5133568;27;20445;-58
2023/10/19 05:52:57;;;;;;;1.03;1.03;;;;;;;12.60;100.00;95522.69;5133294;27;20443;-57
2023/10/19 05:55:25;;;;;;;0.40;0.30;;;;;;;12.65;100.00;95525.31;5133184;27;20439;-57
2023/10/19 05:57:55;;;;;;;0.73;0.73;;;;;;;12.81;100.00;95526.00;5133508;27;20849;-57
2023/10/19 06:00:25;;;;;;;1.17;0.50;;;;;;;12.98;100.00;95526.41;5133302;27;21027;-57
2023/10/19 06:02:54;;;;;;;0.40;0.30;;;;;;;12.99;100.00;95536.78;5133047;27;20491;-57
2023/10/19 06:05:24;;;;;;;0.73;0.43;;;;;;;12.87;100.00;95495.63;5133786;27;20517;-57
2023/10/19 06:07:53;;;;;;;0.50;0.50;;;;;;;13.17;100.00;95536.13;5106387;27;20932;-57
2023/10/19 06:10:22;;;;;;;0.50;0.40;;;;;;;12.87;100.00;95471.69;5133226;27;20435;-56
2023/10/19 06:12:52;;;;;;;0.40;0.30;;;;;;;13.46;100.00;95532.66;5132897;27;20438;-58
2023/10/19 06:15:23;;;;;;;0.70;0.70;;;;;;;13.20;100.00;95537.44;5132924;27;20435;-58
2023/10/19 06:17:52;;;;;;;0.50;0.30;;;;;;;13.45;100.00;95536.41;5133118;27;20430;-59
2023/10/19 06:20:23;;;;;;;0.47;0.40;;;;;;;13.38;100.00;95536.75;5132801;27;20557;-58
2023/10/19 06:22:55;;;;;;;0.50;0.40;;;;;;;13.16;100.00;95539.84;5132958;27;20991;-58
2023/10/19 06:25:25;;;;;;;0.60;0.53;;;;;;;13.40;100.00;95542.56;5132326;27;20442;-58
2023/10/19 06:27:56;;;;;;;3.03;1.00;;;;;;;13.43;100.00;95544.69;5131261;27;20526;-59
2023/10/19 06:30:27;;;;;;;0.60;0.50;;;;;;;13.63;100.00;95541.00;5132300;27;20433;-58
2023/10/19 06:33:00;;;;;;;0.87;0.40;;;;;;;13.40;100.00;95547.09;5133330;27;20959;-58
2023/10/19 06:35:32;;;;;;;0.50;0.50;;;;;;;14.12;100.00;95540.69;5132664;27;20450;-58
2023/10/19 06:38:03;;;;;;;0.43;0.30;;;;;;;14.22;100.00;95521.94;5120993;27;20452;-58
2023/10/19 06:40:36;;;;;;;0.90;0.60;;;;;;;14.36;100.00;95530.84;5132832;27;20462;-57
2023/10/19 06:43:05;;;;;;;0.60;0.60;;;;;;;13.31;100.00;95361.34;5131955;27;20868;-57
2023/10/19 06:45:34;;;;;;;0.40;0.30;;;;;;;14.57;100.00;95514.25;5132559;27;20442;-58
2023/10/19 06:48:03;;;;;;;0.50;0.50;;;;;;;14.88;99.45;95533.25;5105638;27;20446;-57
2023/10/19 06:50:33;;;;;;;0.50;0.47;;;;;;;14.45;98.93;95531.75;5132409;27;20783;-57
2023/10/19 06:53:05;;;;;;;0.57;0.40;;;;;;;14.12;100.00;95535.38;5132816;27;20487;-58
2023/10/19 06:55:33;;;;;;;1.10;0.90;;;;;;;14.16;100.00;95531.06;5132872;27;20523;-58
2023/10/19 06:58:02;;;;;;;0.50;0.40;;;;;;;14.38;100.00;95531.34;5132371;27;20452;-59
2023/10/19 07:00:31;;;;;;;0.73;0.50;;;;;;;14.39;100.00;95530.25;5132308;27;20906;-59
2023/10/19 07:03:02;;;;;;;1.07;0.97;;;;;;;14.21;100.00;95526.47;5132442;27;20438;-58
2023/10/19 07:05:30;;;;;;;0.87;0.83;;;;;;;14.03;100.00;95548.53;5132624;27;20439;-60
2023/10/19 07:08:01;;;;;;;0.50;0.50;;;;;;;14.00;100.00;95536.59;5132610;27;20445;-59
2023/10/19 07:10:32;;;;;;;0.63;0.50;;;;;;;14.11;100.00;95529.25;5132182;27;20928;-58
2023/10/19 07:13:01;;;;;;;0.77;0.77;;;;;;;14.28;100.00;95531.44;5132801;27;20867;-59
2023/10/19 07:15:31;;;;;;;0.53;0.33;;;;;;;14.35;100.00;95534.56;5131990;27;20434;-59
2023/10/19 07:17:59;;;;;;;0.77;0.77;;;;;;;14.62;100.00;95532.06;5132007;28;20446;-58
2023/10/19 07:20:28;;;;;;;1.30;1.30;;;;;;;14.33;100.00;95532.19;5132636;28;20476;-58
2023/10/19 07:23:00;;;;;;;2.37;0.30;;;;;;;14.90;100.00;95528.44;5132322;28;20500;-59
2023/10/19 07:25:29;;;;;;;1.00;0.77;;;;;;;15.51;95.58;95530.13;5131824;28;20438;-59
2023/10/19 07:28:00;;;;;;;0.50;0.50;;;;;;;14.97;96.67;95533.41;5131886;28;20438;-59
2023/10/19 07:30:30;;;;;;;2.20;1.00;;;;;;;14.49;100.00;95527.47;5120786;28;20863;-60
2023/10/19 07:32:59;;;;;;;0.70;0.40;;;;;;;14.92;100.00;95536.16;5131705;28;20522;-59
2023/10/19 07:35:30;;;;;;;0.53;0.50;;;;;;;15.18;99.17;95530.09;5132026;28;20810;-59
2023/10/19 07:38:03;;;;;;;0.93;0.50;;;;;;;15.78;96.90;95530.16;5131360;28;20438;-59
2023/10/19 07:40:32;;;;;;;0.43;0.40;;;;;;;15.93;94.14;95521.03;5131652;28;20442;-60
2023/10/19 07:43:03;;;;;;;0.50;0.40;;;;;;;15.66;93.63;95533.28;5131841;28;20481;-60
2023/10/19 07:45:34;;;;;;;0.40;0.30;;;;;;;16.10;92.24;95532.72;5132510;28;20446;-61
2023/10/19 07:48:07;;;;;;;0.50;0.40;;;;;;;16.64;89.33;95533.75;5131676;27;20446;-60
2023/10/19 07:50:36;;;;;;;0.57;0.50;;;;;;;16.50;88.96;95531.88;5135453;27;20980;-60
2023/10/19 07:53:05;;;;;;;1.60;1.50;;;;;;;15.69;90.26;95534.59;5135461;27;20962;-60
2023/10/19 07:55:34;;;;;;;0.80;0.73;;;;;;;16.02;92.01;95543.31;5135940;27;20435;-61
2023/10/19 07:58:04;;;;;;;0.70;0.70;;;;;;;15.61;89.51;95471.94;5135984;27;20474;-61
2023/10/19 08:00:34;;;;;;;0.60;0.60;;;;;;;16.34;88.27;95530.59;5135839;27;20521;-60
2023/10/19 08:03:04;;;;;;;0.80;0.50;;;;;;;16.96;85.54;95520.16;5135743;27;20442;-60
2023/10/19 08:05:34;;;;;;;1.27;1.17;;;;;;;17.26;82.64;95526.66;5135409;27;20446;-60
2023/10/19 08:08:03;;;;;;;0.60;0.40;;;;;;;17.42;80.66;95522.50;5135557;27;20439;-60
2023/10/19 08:10:34;;;;;;;1.80;1.80;;;;;;;17.21;81.10;95524.91;5135322;27;20529;-60
2023/10/19 08:13:04;;;;;;;0.60;0.40;;;;;;;17.20;80.28;95519.84;5135797;27;20449;-60
2023/10/19 08:15:33;;;;;;;0.63;0.47;;;;;;;17.59;78.98;95527.97;5135440;27;20940;-60
2023/10/19 08:18:01;;;;;;;0.40;0.30;;;;;;;17.77;78.33;95521.59;5129405;27;20441;-60
2023/10/19 08:20:31;;;;;;;2.93;0.50;;;;;;;18.06;75.80;95518.41;5135730;27;20434;-60
2023/10/19 08:23:02;;;;;;;0.50;0.40;;;;;;;17.34;77.86;95485.75;5135797;27;20546;-59
2023/10/19 08:25:31;;;;;;;0.70;0.60;;;;;;;17.71;77.76;95512.13;5134358;27;20437;-60
2023/10/19 08:28:22;;;;;;;0.50;0.50;;;;;;;18.09;77.26;95507.06;5135233;27;20434;-59
2023/10/19 08:30:57;;;;;;;0.57;0.47;;;;;;;17.89;76.42;95507.59;5135652;27;20438;-59
2023/10/19 08:33:27;;;;;;;0.50;0.30;;;;;;;18.09;76.37;95507.06;5134889;27;20430;-59
2023/10/19 08:35:56;;;;;;;4.10;0.70;;;;;;;18.82;77.33;95498.19;5135243;27;20437;-60
2023/10/19 08:38:25;;;;;;;0.90;0.40;;;;;;;20.36;70.67;95494.28;5134817;27;20434;-59
2023/10/19 08:40:54;;;;;;;0.70;0.40;;;;;;;19.89;68.77;95499.72;5134653;27;20462;-60
2023/10/19 08:43:25;;;;;;;0.60;0.40;;;;;;;20.26;69.26;95498.91;5129554;27;20857;-59
2023/10/19 08:45:55;;;;;;;1.77;1.67;;;;;;;20.40;65.40;95498.69;5127570;27;20434;-60
2023/10/19 08:48:24;;;;;;;0.57;0.50;;;;;;;19.90;66.73;95498.59;5134515;27;20446;-59
2023/10/19 08:50:55;;;;;;;0.50;0.40;;;;;;;19.36;67.55;95504.75;5134619;27;20445;-59
2023/10/19 08:53:25;;;;;;;1.23;0.40;;;;;;;20.58;67.90;95496.66;5109185;27;20477;-60
2023/10/19 08:55:55;;;;;;;0.93;0.90;;;;;;;19.74;67.79;95494.06;5134766;27;20884;-60
2023/10/19 08:58:27;;;;;;;0.60;0.50;;;;;;;21.18;67.31;95488.09;5134567;27;20466;-58
2023/10/19 09:00:56;;;;;;;0.50;0.50;;;;;;;21.65;63.18;95491.28;5133813;27;20462;-59
2023/10/19 09:03:25;;;;;;;0.40;0.30;;;;;;;21.71;59.67;95479.13;5134978;27;20538;-59
2023/10/19 09:05:56;;;;;;;0.50;0.33;;;;;;;21.85;57.52;95480.44;5134498;27;20442;-58
2023/10/19 09:08:25;;;;;;;0.60;0.60;;;;;;;21.20;59.88;95483.94;5134865;27;20434;-59
2023/10/19 09:10:54;;;;;;;0.40;0.30;;;;;;;21.72;59.35;95486.09;5134379;27;20800;-59
2023/10/19 09:13:25;;;;;;;0.50;0.50;;;;;;;21.81;57.80;95466.00;5134267;27;20441;-60
2023/10/19 09:15:55;;;;;;;0.60;0.30;;;;;;;22.49;57.03;95458.88;5134458;27;20855;-59
2023/10/19 09:18:27;;;;;;;0.40;0.30;;;;;;;23.12;55.19;95456.47;5134387;27;20525;-57
2023/10/19 09:21:02;;;;;;;1.10;0.40;;;;;;;23.10;54.35;95456.00;5133658;27;20495;-56
2023/10/19 09:23:31;;;;;;;0.53;0.30;;;;;;;23.44;54.93;95450.03;5133552;27;20508;-55
2023/10/19 09:26:03;;;;;;;0.40;0.30;;;;;;;23.93;52.90;95451.25;5134266;27;20474;-56
2023/10/19 09:28:36;;;;;;;0.53;0.50;;;;;;;23.78;52.50;95456.69;5133668;27;20445;-56
2023/10/19 09:31:05;;;;;;;0.60;0.40;;;;;;;23.86;53.71;95450.28;5133957;27;20442;-56
2023/10/19 09:33:34;;;;;;;0.50;0.30;;;;;;;23.85;54.47;95427.88;5133644;27;20478;-57
2023/10/19 09:36:12;;;;;;;0.50;0.30;;;;;;;23.68;53.34;95444.44;5134015;27;20460;-57
2023/10/19 09:38:48;;;;;;;4.93;0.63;;;;;;;22.59;53.63;95438.75;5133947;27;20462;-58
2023/10/19 09:41:20;;;;;;;0.40;0.30;;;;;;;22.86;54.81;95439.91;5133628;27;20436;-58
2023/10/19 09:43:54;;;;;;;0.70;0.30;;;;;;;23.07;53.38;95438.56;5133873;27;20439;-59
2023/10/19 09:46:28;;;;;;;0.40;0.20;;;;;;;23.10;54.01;95437.09;5130007;27;20458;-59
2023/10/19 09:48:58;;;;;;;0.50;0.43;;;;;;;22.09;56.99;95439.13;5107309;27;20452;-60
2023/10/19 09:51:26;;;;;;;7.90;0.80;;;;;;;22.20;57.56;95437.56;5133906;27;20467;-60
2023/10/19 09:54:02;;;;;;;0.40;0.20;;;;;;;22.59;56.58;95436.03;5133367;27;20480;-60
2023/10/19 09:56:36;;;;;;;0.97;0.50;;;;;;;22.30;57.30;95428.22;5133419;27;20522;-59
2023/10/19 09:59:18;;;;;;;0.43;0.30;;;;;;;23.10;54.50;95434.38;5133587;27;20445;-59
2023/10/19 10:02:10;;;;;;;0.80;0.80;;;;;;;23.03;54.27;95429.59;5133776;27;21073;-59
2023/10/19 10:04:40;;;;;;;0.40;0.30;;;;;;;22.66;55.17;95418.16;5133413;27;20435;-59
2023/10/19 10:07:10;;;;;;;0.40;0.30;;;;;;;21.97;57.38;95415.66;5133684;27;20446;-61
2023/10/19 10:09:43;;;;;;;0.50;0.40;;;;;;;21.90;57.98;95415.44;5132640;27;20438;-61
2023/10/19 10:12:21;;;;;;;0.70;0.70;;;;;;;21.09;57.49;95396.56;5132596;27;20438;-61
2023/10/19 10:15:03;;;;;;;0.40;0.30;;;;;;;21.40;58.40;95350.22;5133168;27;20430;-60
2023/10/19 10:17:35;;;;;;;0.50;0.30;;;;;;;21.75;56.98;95375.63;5132869;27;20446;-60
2023/10/19 10:20:31;;;;;;;0.40;0.30;;;;;;;22.56;55.39;95412.41;5132801;27;20438;-60
2023/10/19 10:23:21;;;;;;;0.60;0.40;;;;;;;22.91;54.63;95412.63;5107725;27;20884;-61
2023/10/19 10:25:53;;;;;;;0.77;0.53;;;;;;;23.23;53.34;95414.25;5110962;27;20494;-62
2023/10/19 10:28:23;;;;;;;0.50;0.30;;;;;;;22.77;55.46;95411.09;5119613;27;20960;-63
2023/10/19 10:31:20;;;;;;;0.73;0.73;;;;;;;22.67;54.89;95398.09;5119960;27;20955;-63
2023/10/19 10:33:51;;;;;;;0.50;0.50;;;;;;;21.94;57.54;95396.63;5132551;27;20441;-60
2023/10/19 10:36:20;;;;;;;0.50;0.40;;;;;;;21.51;57.20;95395.28;5132710;27;20442;-59
2023/10/19 10:38:50;;;;;;;0.40;0.30;;;;;;;21.69;56.45;95385.06;5105546;27;20434;-58
2023/10/19 10:41:25;;;;;;;0.50;0.40;;;;;;;21.97;57.42;95379.78;5132081;27;20466;-58
2023/10/19 10:43:54;;;;;;;0.40;0.40;;;;;;;22.27;55.59;95370.28;5133119;27;20473;-60
2023/10/19 10:46:27;;;;;;;4.33;0.50;;;;;;;22.39;55.29;95358.66;5133019;27;20989;-61
2023/10/19 10:48:55;;;;;;;0.43;0.43;;;;;;;23.20;54.35;95352.75;5132820;27;20434;-60
2023/10/19 10:51:25;;;;;;;0.40;0.40;;;;;;;23.23;53.73;95352.06;5132187;27;20435;-59
2023/10/19 10:53:56;;;;;;;0.40;0.30;;;;;;;23.32;52.72;95345.38;5106713;27;20808;-62
2023/10/19 10:56:25;;;;;;;0.60;0.60;;;;;;;22.38;53.72;95349.78;5131916;27;20445;-58
2023/10/19 10:58:54;;;;;;;1.57;0.50;;;;;;;22.64;54.75;95339.31;5132487;27;20438;-58
2023/10/19 11:01:32;;;;;;;0.60;0.30;;;;;;;22.48;56.40;95348.50;5131975;27;20956;-58
2023/10/19 11:04:08;;;;;;;0.43;0.30;;;;;;;21.81;57.23;95346.47;5132244;27;20470;-57
2023/10/19 11:06:50;;;;;;;0.40;0.20;;;;;;;22.04;55.62;95344.91;5132372;27;20433;-57
2023/10/19 11:09:19;;;;;;;0.50;0.40;;;;;;;21.40;59.21;95340.19;5107002;27;20439;-57
2023/10/19 11:11:49;;;;;;;0.50;0.30;;;;;;;20.68;61.11;95343.53;5131906;27;20426;-56
2023/10/19 11:14:17;;;;;;;0.40;0.30;;;;;;;20.64;60.84;95342.63;5132451;27;20435;-57
2023/10/19 11:16:47;;;;;;;0.50;0.40;;;;;;;20.67;60.10;95339.25;5131816;27;20839;-56
2023/10/19 11:19:16;;;;;;;0.60;0.40;;;;;;;21.06;60.47;95337.13;5132295;27;20442;-57
2023/10/19 11:21:54;;;;;;;0.50;0.30;;;;;;;21.00;61.27;95336.53;5132019;28;20892;-57
2023/10/19 11:24:31;;;;;;;0.50;0.33;;;;;;;20.74;61.43;95336.84;5137485;27;20475;-57
2023/10/19 11:27:00;;;;;;;0.50;0.50;;;;;;;20.61;61.00;95326.34;5138407;27;20531;-57
2023/10/19 11:29:29;;;;;;;0.50;0.30;;;;;;;21.24;59.25;95309.66;5138895;27;20434;-57
2023/10/19 11:32:02;;;;;;;0.40;0.20;;;;;;;21.98;57.70;95316.59;5131922;27;21011;-58
2023/10/19 11:34:34;;;;;;;0.57;0.40;;;;;;;22.06;56.95;95310.28;5113708;27;20449;-57
2023/10/19 11:37:04;;;;;;;0.40;0.30;;;;;;;22.38;56.37;95298.47;5139055;27;20438;-58
2023/10/19 11:39:33;;;;;;;1.13;0.97;;;;;;;22.28;56.51;95290.84;5133899;27;20465;-58
2023/10/19 11:42:02;;;;;;;0.60;0.50;;;;;;;22.37;55.56;95291.47;5138838;27;20434;-60
2023/10/19 11:44:30;;;;;;;0.40;0.30;;;;;;;22.95;53.99;95289.94;5138635;27;20474;-62
2023/10/19 11:46:59;;;;;;;0.50;0.40;;;;;;;23.94;52.03;95276.06;5138625;27;20448;-62
2023/10/19 11:49:29;;;;;;;0.60;0.30;;;;;;;25.08;50.39;95277.94;5138479;27;20468;-60